sensor_id;sensor_type;location;lat;lon;timestamp;pressure;altitude;pressure_sealevel;temperature;humidity
12475;BME280;6302;42.624;23.334;2022-07-05T00:00:21;93461.97;;;22.16;61.23
12475;BME280;6302;42.624;23.334;2022-07-05T00:02:48;93468.56;;;22.15;63.00
12475;BME280;6302;42.624;23.334;2022-07-05T00:05:14;93457.19;;;22.11;64.25
12475;BME280;6302;42.624;23.334;2022-07-05T00:07:41;93464.44;;;22.05;64.94
12475;BME280;6302;42.624;23.334;2022-07-05T00:10:08;93461.44;;;22.03;65.64
12475;BME280;6302;42.624;23.334;2022-07-05T00:12:36;93463.13;;;22.00;66.27
12475;BME280;6302;42.624;23.334;2022-07-05T00:15:04;93459.38;;;21.98;67.29
12475;BME280;6302;42.624;23.334;2022-07-05T00:17:30;93463.31;;;21.97;67.95
12475;BME280;6302;42.624;23.334;2022-07-05T00:19:57;93452.84;;;21.90;67.94
12475;BME280;6302;42.624;23.334;2022-07-05T00:22:24;93449.84;;;21.88;68.42
12475;BME280;6302;42.624;23.334;2022-07-05T00:24:51;93447.63;;;21.86;67.39
12475;BME280;6302;42.624;23.334;2022-07-05T00:27:18;93445.13;;;21.74;67.28
12475;BME280;6302;42.624;23.334;2022-07-05T00:29:46;93453.50;;;21.76;67.31
12475;BME280;6302;42.624;23.334;2022-07-05T00:32:13;93448.59;;;21.65;66.59
12475;BME280;6302;42.624;23.334;2022-07-05T00:34:40;93454.69;;;21.51;66.56
12475;BME280;6302;42.624;23.334;2022-07-05T00:37:06;93425.50;;;21.17;67.17
12475;BME280;6302;42.624;23.334;2022-07-05T00:39:33;93460.56;;;21.40;68.23
12475;BME280;6302;42.624;23.334;2022-07-05T00:42:00;93295.16;;;20.22;69.41
12475;BME280;6302;42.624;23.334;2022-07-05T00:44:29;93461.50;;;21.37;69.69
12475;BME280;6302;42.624;23.334;2022-07-05T00:46:58;93452.19;;;21.38;70.43
12475;BME280;6302;42.624;23.334;2022-07-05T00:49:25;93458.06;;;21.37;72.57
12475;BME280;6302;42.624;23.334;2022-07-05T00:51:52;93408.00;;;21.03;72.79
12475;BME280;6302;42.624;23.334;2022-07-05T00:54:19;93453.13;;;21.35;73.21
12475;BME280;6302;42.624;23.334;2022-07-05T00:56:46;93450.13;;;21.33;73.84
12475;BME280;6302;42.624;23.334;2022-07-05T00:59:13;93448.16;;;21.34;74.66
12475;BME280;6302;42.624;23.334;2022-07-05T01:01:40;93450.72;;;21.37;74.73
12475;BME280;6302;42.624;23.334;2022-07-05T01:04:08;93444.09;;;21.38;75.30
12475;BME280;6302;42.624;23.334;2022-07-05T01:06:35;93456.09;;;21.37;75.51
12475;BME280;6302;42.624;23.334;2022-07-05T01:09:02;93451.91;;;21.36;75.78
12475;BME280;6302;42.624;23.334;2022-07-05T01:11:29;93461.66;;;21.34;76.42
12475;BME280;6302;42.624;23.334;2022-07-05T01:13:56;93461.06;;;21.30;77.32
12475;BME280;6302;42.624;23.334;2022-07-05T01:16:25;93465.72;;;21.29;78.63
12475;BME280;6302;42.624;23.334;2022-07-05T01:18:52;93465.16;;;21.25;78.63
12475;BME280;6302;42.624;23.334;2022-07-05T01:21:21;93476.06;;;21.22;76.79
12475;BME280;6302;42.624;23.334;2022-07-05T01:23:50;93478.03;;;21.21;76.68
12475;BME280;6302;42.624;23.334;2022-07-05T01:26:18;93473.84;;;21.20;76.75
12475;BME280;6302;42.624;23.334;2022-07-05T01:28:45;93465.78;;;21.11;77.21
12475;BME280;6302;42.624;23.334;2022-07-05T01:31:12;93481.63;;;21.18;79.24
12475;BME280;6302;42.624;23.334;2022-07-05T01:33:39;93472.97;;;21.14;79.71
12475;BME280;6302;42.624;23.334;2022-07-05T01:36:06;93475.38;;;21.12;80.94
12475;BME280;6302;42.624;23.334;2022-07-05T01:38:33;93481.94;;;21.11;82.02
12475;BME280;6302;42.624;23.334;2022-07-05T01:41:01;93481.66;;;21.09;83.02
12475;BME280;6302;42.624;23.334;2022-07-05T01:43:28;93474.31;;;21.01;83.27
12475;BME280;6302;42.624;23.334;2022-07-05T01:45:56;93479.72;;;21.01;83.42
12475;BME280;6302;42.624;23.334;2022-07-05T01:48:26;93471.94;;;20.94;84.35
12475;BME280;6302;42.624;23.334;2022-07-05T01:51:06;93468.94;;;20.92;84.62
12475;BME280;6302;42.624;23.334;2022-07-05T01:53:34;93465.97;;;20.90;84.43
12475;BME280;6302;42.624;23.334;2022-07-05T01:56:03;93460.91;;;20.83;84.61
12475;BME280;6302;42.624;23.334;2022-07-05T01:58:30;93465.53;;;20.82;85.59
12475;BME280;6302;42.624;23.334;2022-07-05T02:00:58;93460.59;;;20.81;85.90
12475;BME280;6302;42.624;23.334;2022-07-05T02:03:26;93459.69;;;20.74;85.93
12475;BME280;6302;42.624;23.334;2022-07-05T02:05:53;93459.41;;;20.72;86.64
12475;BME280;6302;42.624;23.334;2022-07-05T02:08:20;93458.66;;;20.72;86.90
12475;BME280;6302;42.624;23.334;2022-07-05T02:10:47;93399.97;;;20.34;87.45
12475;BME280;6302;42.624;23.334;2022-07-05T02:13:15;93409.50;;;20.35;87.98
12475;BME280;6302;42.624;23.334;2022-07-05T02:15:42;93436.41;;;20.53;88.99
12475;BME280;6302;42.624;23.334;2022-07-05T02:18:09;93456.59;;;20.58;89.61
12475;BME280;6302;42.624;23.334;2022-07-05T02:20:38;93460.66;;;20.53;90.48
12475;BME280;6302;42.624;23.334;2022-07-05T02:23:05;93467.97;;;20.53;90.87
12475;BME280;6302;42.624;23.334;2022-07-05T02:25:32;93458.09;;;20.50;91.43
12475;BME280;6302;42.624;23.334;2022-07-05T02:27:59;93460.19;;;20.46;92.13
12475;BME280;6302;42.624;23.334;2022-07-05T02:30:28;93469.47;;;20.45;92.73
12475;BME280;6302;42.624;23.334;2022-07-05T02:32:54;93475.59;;;20.45;93.80
12475;BME280;6302;42.624;23.334;2022-07-05T02:35:21;93445.69;;;20.25;94.15
12475;BME280;6302;42.624;23.334;2022-07-05T02:37:48;93475.75;;;20.42;95.55
12475;BME280;6302;42.624;23.334;2022-07-05T02:40:15;93459.63;;;20.24;96.34
12475;BME280;6302;42.624;23.334;2022-07-05T02:42:41;93483.69;;;20.36;97.26
12475;BME280;6302;42.624;23.334;2022-07-05T02:45:09;93476.22;;;20.31;96.79
12475;BME280;6302;42.624;23.334;2022-07-05T02:47:37;93473.47;;;20.22;96.36
12475;BME280;6302;42.624;23.334;2022-07-05T02:50:05;93474.38;;;20.19;94.68
12475;BME280;6302;42.624;23.334;2022-07-05T02:52:32;93493.72;;;20.27;94.92
12475;BME280;6302;42.624;23.334;2022-07-05T02:54:58;93489.81;;;20.28;94.92
12475;BME280;6302;42.624;23.334;2022-07-05T02:57:25;93378.25;;;19.47;94.73
12475;BME280;6302;42.624;23.334;2022-07-05T02:59:52;93494.00;;;20.29;95.87
12475;BME280;6302;42.624;23.334;2022-07-05T03:02:20;93469.72;;;20.10;96.13
12475;BME280;6302;42.624;23.334;2022-07-05T03:04:48;93494.00;;;20.29;96.61
12475;BME280;6302;42.624;23.334;2022-07-05T03:07:15;93489.38;;;20.29;97.04
12475;BME280;6302;42.624;23.334;2022-07-05T03:09:42;93436.41;;;19.90;97.45
12475;BME280;6302;42.624;23.334;2022-07-05T03:12:09;93480.81;;;20.22;97.58
12475;BME280;6302;42.624;23.334;2022-07-05T03:14:36;93494.59;;;20.33;97.85
12475;BME280;6302;42.624;23.334;2022-07-05T03:17:03;93493.41;;;20.34;98.29
12475;BME280;6302;42.624;23.334;2022-07-05T03:19:29;93483.25;;;20.29;98.50
12475;BME280;6302;42.624;23.334;2022-07-05T03:21:58;93489.66;;;20.40;97.90
12475;BME280;6302;42.624;23.334;2022-07-05T03:24:24;93479.19;;;20.33;97.80
12475;BME280;6302;42.624;23.334;2022-07-05T03:26:51;93477.41;;;20.30;98.28
12475;BME280;6302;42.624;23.334;2022-07-05T03:29:18;93488.31;;;20.45;98.47
12475;BME280;6302;42.624;23.334;2022-07-05T03:31:45;93489.97;;;20.51;98.41
12475;BME280;6302;42.624;23.334;2022-07-05T03:34:12;93491.59;;;20.58;98.25
12475;BME280;6302;42.624;23.334;2022-07-05T03:36:38;93484.09;;;20.62;98.09
12475;BME280;6302;42.624;23.334;2022-07-05T03:39:06;93485.00;;;20.68;98.19
12475;BME280;6302;42.624;23.334;2022-07-05T03:41:33;93482.91;;;20.72;97.57
12475;BME280;6302;42.624;23.334;2022-07-05T03:44:00;93479.59;;;20.77;97.39
12475;BME280;6302;42.624;23.334;2022-07-05T03:46:27;93477.06;;;20.83;98.35
12475;BME280;6302;42.624;23.334;2022-07-05T03:48:53;93476.72;;;20.90;97.54
12475;BME280;6302;42.624;23.334;2022-07-05T03:51:20;93478.34;;;20.96;97.03
12475;BME280;6302;42.624;23.334;2022-07-05T03:53:47;93474.16;;;21.04;95.84
12475;BME280;6302;42.624;23.334;2022-07-05T03:56:15;93472.66;;;21.12;95.35
12475;BME280;6302;42.624;23.334;2022-07-05T03:58:45;93466.03;;;21.22;95.49
12475;BME280;6302;42.624;23.334;2022-07-05T04:01:12;93466.91;;;21.28;93.99
12475;BME280;6302;42.624;23.334;2022-07-05T04:03:39;93470.78;;;21.36;93.03
12475;BME280;6302;42.624;23.334;2022-07-05T04:06:06;93468.03;;;21.46;92.81
12475;BME280;6302;42.624;23.334;2022-07-05T04:08:33;93466.78;;;21.56;91.84
12475;BME280;6302;42.624;23.334;2022-07-05T04:11:00;93476.34;;;21.66;91.00
12475;BME280;6302;42.624;23.334;2022-07-05T04:13:29;93462.56;;;21.64;89.85
12475;BME280;6302;42.624;23.334;2022-07-05T04:15:55;93470.91;;;21.75;89.54
12475;BME280;6302;42.624;23.334;2022-07-05T04:18:22;93472.56;;;21.72;90.87
12475;BME280;6302;42.624;23.334;2022-07-05T04:20:49;93439.81;;;21.56;92.54
12475;BME280;6302;42.624;23.334;2022-07-05T04:23:16;93471.34;;;21.73;91.12
12475;BME280;6302;42.624;23.334;2022-07-05T04:25:42;93474.41;;;21.90;83.77
12475;BME280;6302;42.624;23.334;2022-07-05T04:28:09;93481.34;;;21.82;85.12
12475;BME280;6302;42.624;23.334;2022-07-05T04:30:37;93473.69;;;21.80;83.86
12475;BME280;6302;42.624;23.334;2022-07-05T04:33:04;93475.50;;;21.83;83.54
12475;BME280;6302;42.624;23.334;2022-07-05T04:35:31;93479.25;;;21.86;81.98
12475;BME280;6302;42.624;23.334;2022-07-05T04:37:58;93482.81;;;21.83;80.29
12475;BME280;6302;42.624;23.334;2022-07-05T04:40:24;93483.16;;;21.85;80.12
12475;BME280;6302;42.624;23.334;2022-07-05T04:42:51;93487.63;;;21.88;80.05
12475;BME280;6302;42.624;23.334;2022-07-05T04:45:18;93485.22;;;21.90;80.38
12475;BME280;6302;42.624;23.334;2022-07-05T04:47:46;93489.34;;;22.00;79.28
12475;BME280;6302;42.624;23.334;2022-07-05T04:50:13;93480.88;;;22.16;78.58
12475;BME280;6302;42.624;23.334;2022-07-05T04:52:40;93466.16;;;22.17;77.73
12475;BME280;6302;42.624;23.334;2022-07-05T04:55:07;93481.03;;;22.36;77.97
12475;BME280;6302;42.624;23.334;2022-07-05T04:57:38;93478.72;;;22.44;78.10
12475;BME280;6302;42.624;23.334;2022-07-05T05:00:06;93484.72;;;22.62;75.40
12475;BME280;6302;42.624;23.334;2022-07-05T05:02:33;93392.19;;;22.00;75.04
12475;BME280;6302;42.624;23.334;2022-07-05T05:05:02;93483.91;;;22.71;74.18
12475;BME280;6302;42.624;23.334;2022-07-05T05:07:29;93485.88;;;22.85;75.76
12475;BME280;6302;42.624;23.334;2022-07-05T05:09:56;93480.94;;;22.84;74.43
12475;BME280;6302;42.624;23.334;2022-07-05T05:12:23;93484.38;;;22.99;71.74
12475;BME280;6302;42.624;23.334;2022-07-05T05:14:50;93492.78;;;23.15;72.30
12475;BME280;6302;42.624;23.334;2022-07-05T05:17:17;93490.25;;;23.41;69.85
12475;BME280;6302;42.624;23.334;2022-07-05T05:19:43;93439.72;;;23.33;68.89
12475;BME280;6302;42.624;23.334;2022-07-05T05:22:12;93500.53;;;23.86;68.67
12475;BME280;6302;42.624;23.334;2022-07-05T05:24:39;93496.06;;;24.04;68.23
12475;BME280;6302;42.624;23.334;2022-07-05T05:27:05;93468.72;;;23.81;65.93
12475;BME280;6302;42.624;23.334;2022-07-05T05:29:32;93469.13;;;23.94;66.57
12475;BME280;6302;42.624;23.334;2022-07-05T05:31:59;93472.03;;;23.91;67.91
12475;BME280;6302;42.624;23.334;2022-07-05T05:34:26;93492.44;;;24.07;67.90
12475;BME280;6302;42.624;23.334;2022-07-05T05:36:53;93493.63;;;24.06;67.77
12475;BME280;6302;42.624;23.334;2022-07-05T05:39:21;93485.66;;;23.97;69.51
12475;BME280;6302;42.624;23.334;2022-07-05T05:41:48;93487.41;;;24.00;69.53
12475;BME280;6302;42.624;23.334;2022-07-05T05:44:15;93489.09;;;23.97;70.26
12475;BME280;6302;42.624;23.334;2022-07-05T05:46:41;93477.09;;;23.83;71.24
12475;BME280;6302;42.624;23.334;2022-07-05T05:49:08;93490.66;;;24.04;68.18
12475;BME280;6302;42.624;23.334;2022-07-05T05:51:35;93499.16;;;24.11;67.98
12475;BME280;6302;42.624;23.334;2022-07-05T05:54:02;93496.19;;;24.09;66.62
12475;BME280;6302;42.624;23.334;2022-07-05T05:56:30;93500.31;;;23.90;67.27
12475;BME280;6302;42.624;23.334;2022-07-05T05:58:56;93495.66;;;23.90;67.53
12475;BME280;6302;42.624;23.334;2022-07-05T06:01:23;93455.41;;;23.63;68.65
12475;BME280;6302;42.624;23.334;2022-07-05T06:03:50;93503.72;;;24.05;70.02
12475;BME280;6302;42.624;23.334;2022-07-05T06:06:17;93474.69;;;24.06;67.94
12475;BME280;6302;42.624;23.334;2022-07-05T06:08:44;93497.19;;;24.12;67.47
12475;BME280;6302;42.624;23.334;2022-07-05T06:11:10;93497.06;;;24.21;66.79
12475;BME280;6302;42.624;23.334;2022-07-05T06:13:40;93507.22;;;24.26;67.64
12475;BME280;6302;42.624;23.334;2022-07-05T06:16:07;93494.22;;;24.30;67.88
12475;BME280;6302;42.624;23.334;2022-07-05T06:18:34;93512.38;;;24.24;64.30
12475;BME280;6302;42.624;23.334;2022-07-05T06:21:01;93493.53;;;24.15;66.79
12475;BME280;6302;42.624;23.334;2022-07-05T06:23:28;93509.78;;;24.35;65.51
12475;BME280;6302;42.624;23.334;2022-07-05T06:25:54;93515.63;;;24.48;64.60
12475;BME280;6302;42.624;23.334;2022-07-05T06:28:21;93522.13;;;24.56;63.94
12475;BME280;6302;42.624;23.334;2022-07-05T06:30:49;93522.13;;;24.56;61.73
12475;BME280;6302;42.624;23.334;2022-07-05T06:33:18;93520.34;;;24.33;63.47
12475;BME280;6302;42.624;23.334;2022-07-05T06:35:44;93509.78;;;24.35;65.03
12475;BME280;6302;42.624;23.334;2022-07-05T06:38:11;93512.09;;;24.22;64.84
12475;BME280;6302;42.624;23.334;2022-07-05T06:40:39;93514.34;;;24.43;65.08
12475;BME280;6302;42.624;23.334;2022-07-05T06:43:11;93506.91;;;24.64;64.79
12475;BME280;6302;42.624;23.334;2022-07-05T06:45:38;93503.41;;;24.58;63.74
12475;BME280;6302;42.624;23.334;2022-07-05T06:48:08;93504.97;;;24.44;65.21
12475;BME280;6302;42.624;23.334;2022-07-05T06:50:36;93505.44;;;24.63;68.12
12475;BME280;6302;42.624;23.334;2022-07-05T06:53:04;93498.44;;;24.77;65.32
12475;BME280;6302;42.624;23.334;2022-07-05T06:55:31;93460.09;;;24.38;67.73
12475;BME280;6302;42.624;23.334;2022-07-05T06:58:00;93491.91;;;24.83;69.09
12475;BME280;6302;42.624;23.334;2022-07-05T07:00:28;93496.97;;;25.01;68.38
12475;BME280;6302;42.624;23.334;2022-07-05T07:02:55;93481.94;;;25.00;66.29
12475;BME280;6302;42.624;23.334;2022-07-05T07:05:23;93486.69;;;25.05;68.18
12475;BME280;6302;42.624;23.334;2022-07-05T07:07:50;93486.56;;;24.94;68.44
12475;BME280;6302;42.624;23.334;2022-07-05T07:10:34;93476.66;;;24.91;67.82
12475;BME280;6302;42.624;23.334;2022-07-05T07:13:01;93486.78;;;25.16;65.96
12475;BME280;6302;42.624;23.334;2022-07-05T07:15:28;93490.34;;;25.34;65.50
12475;BME280;6302;42.624;23.334;2022-07-05T07:17:55;93485.25;;;25.41;65.05
12475;BME280;6302;42.624;23.334;2022-07-05T07:20:24;93489.91;;;25.41;68.01
12475;BME280;6302;42.624;23.334;2022-07-05T07:22:51;93496.53;;;25.60;67.88
12475;BME280;6302;42.624;23.334;2022-07-05T07:25:18;93494.66;;;25.77;67.99
12475;BME280;6302;42.624;23.334;2022-07-05T07:27:47;93498.22;;;25.94;67.55
12475;BME280;6302;42.624;23.334;2022-07-05T07:30:16;93503.28;;;26.12;64.14
12475;BME280;6302;42.624;23.334;2022-07-05T07:32:44;93503.81;;;26.16;65.21
12475;BME280;6302;42.624;23.334;2022-07-05T07:35:11;93504.69;;;26.02;62.40
12475;BME280;6302;42.624;23.334;2022-07-05T07:37:40;93502.38;;;26.26;62.68
12475;BME280;6302;42.624;23.334;2022-07-05T07:40:07;93491.97;;;26.19;65.09
12475;BME280;6302;42.624;23.334;2022-07-05T07:42:35;93458.84;;;26.15;64.02
12475;BME280;6302;42.624;23.334;2022-07-05T07:45:02;93484.94;;;26.55;63.87
12475;BME280;6302;42.624;23.334;2022-07-05T07:47:29;93375.06;;;26.03;63.82
12475;BME280;6302;42.624;23.334;2022-07-05T07:49:56;93498.19;;;26.95;62.22
12475;BME280;6302;42.624;23.334;2022-07-05T07:52:23;93490.56;;;27.10;61.76
12475;BME280;6302;42.624;23.334;2022-07-05T07:54:51;93501.44;;;27.16;61.35
12475;BME280;6302;42.624;23.334;2022-07-05T07:57:18;93487.81;;;27.05;61.68
12475;BME280;6302;42.624;23.334;2022-07-05T07:59:45;93496.25;;;27.13;61.63
12475;BME280;6302;42.624;23.334;2022-07-05T08:02:11;93496.25;;;27.18;60.30
12475;BME280;6302;42.624;23.334;2022-07-05T08:04:38;93492.53;;;27.10;60.83
12475;BME280;6302;42.624;23.334;2022-07-05T08:07:05;93472.97;;;27.06;61.06
12475;BME280;6302;42.624;23.334;2022-07-05T08:09:32;93496.72;;;27.11;60.35
12475;BME280;6302;42.624;23.334;2022-07-05T08:12:00;93494.47;;;27.04;60.38
12475;BME280;6302;42.624;23.334;2022-07-05T08:14:27;93500.97;;;27.23;61.54
12475;BME280;6302;42.624;23.334;2022-07-05T08:16:53;93498.47;;;27.36;61.81
12475;BME280;6302;42.624;23.334;2022-07-05T08:19:20;93490.13;;;27.45;58.87
12475;BME280;6302;42.624;23.334;2022-07-05T08:22:05;93487.88;;;27.55;59.45
12475;BME280;6302;42.624;23.334;2022-07-05T08:24:34;93490.34;;;27.58;58.62
12475;BME280;6302;42.624;23.334;2022-07-05T08:27:02;93490.59;;;27.66;55.49
12475;BME280;6302;42.624;23.334;2022-07-05T08:29:29;93488.09;;;27.73;54.43
12475;BME280;6302;42.624;23.334;2022-07-05T08:31:56;93484.41;;;27.77;57.54
12475;BME280;6302;42.624;23.334;2022-07-05T08:34:23;93478.94;;;27.77;55.08
12475;BME280;6302;42.624;23.334;2022-07-05T08:36:50;93483.63;;;27.87;56.04
12475;BME280;6302;42.624;23.334;2022-07-05T08:39:17;93460.34;;;27.86;54.05
12475;BME280;6302;42.624;23.334;2022-07-05T08:41:49;93457.63;;;28.03;54.74
12475;BME280;6302;42.624;23.334;2022-07-05T08:44:18;93469.69;;;28.24;53.98
12475;BME280;6302;42.624;23.334;2022-07-05T08:46:47;93484.78;;;28.36;51.24
12475;BME280;6302;42.624;23.334;2022-07-05T08:49:14;93480.00;;;28.48;52.49
12475;BME280;6302;42.624;23.334;2022-07-05T08:51:42;93486.22;;;28.48;49.97
12475;BME280;6302;42.624;23.334;2022-07-05T08:54:09;93478.00;;;28.54;52.82
12475;BME280;6302;42.624;23.334;2022-07-05T08:56:37;93476.50;;;28.58;52.11
12475;BME280;6302;42.624;23.334;2022-07-05T08:59:04;93475.03;;;28.52;52.45
12475;BME280;6302;42.624;23.334;2022-07-05T09:01:32;93474.03;;;28.55;54.41
12475;BME280;6302;42.624;23.334;2022-07-05T09:04:03;93463.09;;;28.71;55.41
12475;BME280;6302;42.624;23.334;2022-07-05T09:06:32;93439.22;;;28.77;52.98
12475;BME280;6302;42.624;23.334;2022-07-05T09:08:59;93455.34;;;29.16;53.97
12475;BME280;6302;42.624;23.334;2022-07-05T09:11:32;93456.28;;;29.30;49.29
12475;BME280;6302;42.624;23.334;2022-07-05T09:14:02;93456.50;;;29.32;49.57
12475;BME280;6302;42.624;23.334;2022-07-05T09:16:33;93443.44;;;29.19;49.27
12475;BME280;6302;42.624;23.334;2022-07-05T09:19:05;93440.38;;;29.28;50.76
12475;BME280;6302;42.624;23.334;2022-07-05T09:21:33;93444.66;;;29.53;50.56
12475;BME280;6302;42.624;23.334;2022-07-05T09:24:01;93410.00;;;29.43;50.85
12475;BME280;6302;42.624;23.334;2022-07-05T09:26:32;93429.88;;;29.68;47.45
12475;BME280;6302;42.624;23.334;2022-07-05T09:28:59;93432.00;;;29.80;47.26
12475;BME280;6302;42.624;23.334;2022-07-05T09:31:27;93440.19;;;29.80;47.29
12475;BME280;6302;42.624;23.334;2022-07-05T09:34:03;93433.06;;;29.72;46.88
12475;BME280;6302;42.624;23.334;2022-07-05T09:36:49;93428.78;;;29.76;48.34
12475;BME280;6302;42.624;23.334;2022-07-05T09:39:16;93430.38;;;29.96;49.86
12475;BME280;6302;42.624;23.334;2022-07-05T09:41:42;93432.34;;;30.19;46.46
12475;BME280;6302;42.624;23.334;2022-07-05T09:44:09;93427.19;;;30.35;47.35
12475;BME280;6302;42.624;23.334;2022-07-05T09:46:36;93430.94;;;30.56;46.98
12475;BME280;6302;42.624;23.334;2022-07-05T09:49:04;93425.97;;;30.73;45.94
12475;BME280;6302;42.624;23.334;2022-07-05T09:51:46;93426.94;;;30.94;45.25
12475;BME280;6302;42.624;23.334;2022-07-05T09:54:14;93413.50;;;30.96;44.06
12475;BME280;6302;42.624;23.334;2022-07-05T09:56:45;93416.06;;;31.07;44.28
12475;BME280;6302;42.624;23.334;2022-07-05T09:59:16;93415.03;;;31.23;45.34
12475;BME280;6302;42.624;23.334;2022-07-05T10:01:44;93408.97;;;31.43;45.27
12475;BME280;6302;42.624;23.334;2022-07-05T10:04:12;93413.66;;;31.48;46.14
12475;BME280;6302;42.624;23.334;2022-07-05T10:06:39;93412.44;;;31.63;44.18
12475;BME280;6302;42.624;23.334;2022-07-05T10:09:07;93404.19;;;31.49;43.23
12475;BME280;6302;42.624;23.334;2022-07-05T10:11:38;93396.31;;;31.59;45.81
12475;BME280;6302;42.624;23.334;2022-07-05T10:14:10;93398.31;;;31.72;44.53
12475;BME280;6302;42.624;23.334;2022-07-05T10:16:37;93404.22;;;31.76;44.22
12475;BME280;6302;42.624;23.334;2022-07-05T10:19:08;93395.06;;;31.86;46.16
12475;BME280;6302;42.624;23.334;2022-07-05T10:21:41;93394.34;;;31.99;45.01
12475;BME280;6302;42.624;23.334;2022-07-05T10:24:10;93393.94;;;32.08;44.26
12475;BME280;6302;42.624;23.334;2022-07-05T10:26:38;93376.63;;;32.13;43.18
12475;BME280;6302;42.624;23.334;2022-07-05T10:29:07;93395.63;;;32.11;42.38
12475;BME280;6302;42.624;23.334;2022-07-05T10:31:34;93389.91;;;32.22;44.27
12475;BME280;6302;42.624;23.334;2022-07-05T10:34:02;93389.03;;;32.40;44.99
12475;BME280;6302;42.624;23.334;2022-07-05T10:36:33;93381.44;;;32.46;46.41
12475;BME280;6302;42.624;23.334;2022-07-05T10:39:02;93381.34;;;32.52;45.23
12475;BME280;6302;42.624;23.334;2022-07-05T10:41:29;93378.47;;;32.57;46.03
12475;BME280;6302;42.624;23.334;2022-07-05T10:43:57;93374.34;;;32.64;45.75
12475;BME280;6302;42.624;23.334;2022-07-05T10:46:35;93373.63;;;32.63;44.48
12475;BME280;6302;42.624;23.334;2022-07-05T10:49:14;93373.69;;;32.71;43.49
12475;BME280;6302;42.624;23.334;2022-07-05T10:51:42;93360.75;;;32.58;44.02
12475;BME280;6302;42.624;23.334;2022-07-05T10:54:10;93374.84;;;32.75;42.49
12475;BME280;6302;42.624;23.334;2022-07-05T10:56:37;93371.66;;;32.71;42.57
12475;BME280;6302;42.624;23.334;2022-07-05T10:59:06;93375.03;;;32.77;42.24
12475;BME280;6302;42.624;23.334;2022-07-05T11:01:39;93372.78;;;32.89;40.06
12475;BME280;6302;42.624;23.334;2022-07-05T11:04:28;93372.63;;;32.74;41.09
12475;BME280;6302;42.624;23.334;2022-07-05T11:07:01;93365.47;;;32.92;41.83
12475;BME280;6302;42.624;23.334;2022-07-05T11:09:29;93365.84;;;33.09;39.49
12475;BME280;6302;42.624;23.334;2022-07-05T11:12:07;93366.50;;;33.02;38.77
12475;BME280;6302;42.624;23.334;2022-07-05T11:14:39;93355.97;;;32.93;37.79
12475;BME280;6302;42.624;23.334;2022-07-05T11:17:18;93349.19;;;33.07;39.92
12475;BME280;6302;42.624;23.334;2022-07-05T11:20:10;93346.38;;;33.20;38.35
12475;BME280;6302;42.624;23.334;2022-07-05T11:22:39;93360.41;;;33.37;38.45
12475;BME280;6302;42.624;23.334;2022-07-05T11:25:09;93344.69;;;33.37;37.86
12475;BME280;6302;42.624;23.334;2022-07-05T11:30:51;93344.31;;;33.41;35.00
12475;BME280;6302;42.624;23.334;2022-07-05T11:33:42;93348.69;;;33.57;36.00
12475;BME280;6302;42.624;23.334;2022-07-05T11:36:20;93343.66;;;33.48;35.98
12475;BME280;6302;42.624;23.334;2022-07-05T11:39:14;93343.06;;;33.63;36.26
12475;BME280;6302;42.624;23.334;2022-07-05T11:41:48;93344.88;;;33.60;35.00
12475;BME280;6302;42.624;23.334;2022-07-05T11:44:15;93342.28;;;33.55;35.20
12475;BME280;6302;42.624;23.334;2022-07-05T11:46:43;93340.69;;;33.46;34.49
12475;BME280;6302;42.624;23.334;2022-07-05T11:49:10;93334.59;;;33.61;35.80
12475;BME280;6302;42.624;23.334;2022-07-05T11:51:36;93334.13;;;33.49;34.52
12475;BME280;6302;42.624;23.334;2022-07-05T11:54:03;93329.03;;;33.53;36.14
12475;BME280;6302;42.624;23.334;2022-07-05T11:56:30;93319.84;;;33.71;36.41
12475;BME280;6302;42.624;23.334;2022-07-05T11:58:59;93320.66;;;33.87;35.79
12475;BME280;6302;42.624;23.334;2022-07-05T12:01:25;93317.97;;;33.94;34.79
12475;BME280;6302;42.624;23.334;2022-07-05T12:03:53;93317.41;;;33.96;33.16
12475;BME280;6302;42.624;23.334;2022-07-05T12:06:21;93309.81;;;33.81;36.42
12475;BME280;6302;42.624;23.334;2022-07-05T12:09:01;93305.41;;;33.78;35.03
12475;BME280;6302;42.624;23.334;2022-07-05T12:11:28;93302.16;;;33.87;35.06
12475;BME280;6302;42.624;23.334;2022-07-05T12:14:21;93308.50;;;34.11;34.07
12475;BME280;6302;42.624;23.334;2022-07-05T12:16:49;93304.69;;;34.14;33.00
12475;BME280;6302;42.624;23.334;2022-07-05T12:19:26;93298.50;;;33.92;33.38
12475;BME280;6302;42.624;23.334;2022-07-05T12:21:53;93297.19;;;33.86;34.38
12475;BME280;6302;42.624;23.334;2022-07-05T12:24:21;93284.88;;;33.79;34.58
12475;BME280;6302;42.624;23.334;2022-07-05T12:26:48;93260.63;;;33.70;34.60
12475;BME280;6302;42.624;23.334;2022-07-05T12:29:17;93273.94;;;33.87;34.64
12475;BME280;6302;42.624;23.334;2022-07-05T12:31:59;93284.78;;;34.00;34.38
12475;BME280;6302;42.624;23.334;2022-07-05T12:34:27;93293.97;;;34.02;34.63
12475;BME280;6302;42.624;23.334;2022-07-05T12:36:55;93293.03;;;34.00;34.05
12475;BME280;6302;42.624;23.334;2022-07-05T12:39:22;93283.03;;;33.74;35.70
12475;BME280;6302;42.624;23.334;2022-07-05T12:41:49;93286.34;;;33.80;33.74
12475;BME280;6302;42.624;23.334;2022-07-05T12:44:18;93287.81;;;33.53;35.15
12475;BME280;6302;42.624;23.334;2022-07-05T12:46:45;93273.88;;;33.51;35.01
12475;BME280;6302;42.624;23.334;2022-07-05T12:49:13;93277.44;;;33.59;35.05
12475;BME280;6302;42.624;23.334;2022-07-05T12:51:41;93275.16;;;33.50;34.48
12475;BME280;6302;42.624;23.334;2022-07-05T12:54:19;93275.63;;;33.62;35.99
12475;BME280;6302;42.624;23.334;2022-07-05T12:57:04;93273.34;;;33.81;36.50
12475;BME280;6302;42.624;23.334;2022-07-05T12:59:59;93269.16;;;33.87;35.21
12475;BME280;6302;42.624;23.334;2022-07-05T13:02:36;93249.53;;;33.83;34.92
12475;BME280;6302;42.624;23.334;2022-07-05T13:05:07;93260.97;;;34.02;36.73
12475;BME280;6302;42.624;23.334;2022-07-05T13:07:41;93256.84;;;34.17;35.52
12475;BME280;6302;42.624;23.334;2022-07-05T13:10:15;93211.97;;;33.86;33.61